Huvudsida
METAR-TAF:

METAR-TAF

Flygplatser :

Mitiga International Airport

Tripoli, Libyen

latitud: 32-54N, longitud: 13-17E, höjd: 11 m

Aktuellt väderrapport

Denna rapport gjordes för 16 timmar och 43 minuter sedan, klockan 21:50 UTC
Vind 3 kt från sydost
Temperatur 16°C
Fuktighet 68%
Tryck 1018 hPa
Sikt: 7000 m
Klar himmel

METAR: HLLM 152150Z 14003KT 7000 SKC 16/10 Q1018

Tid: 16:33 (14:33 UTC)

Väderprognos

Denna rapport gjordes för 3 timmar och 33 minuter sedan, klockan 11:00 UTC
Prognos gäller från 16 kl. 12 UTC till 17 kl. 12 UTC
Vind 2 kt varierande vindriktning
Sikt 10 km eller mer
Inga moln under 1 500 m eller inga cumulonimbus
Blir
från 16 kl. 22 UTC till 16 kl. 24 UTC
Vind 12 kt från väst/sydväst
Sikt: 8000 m
Få moln på en höjd av 3000 ft
Spridda moln på en höjd av 8000 ft

TAF: HLLM 161100Z 1612/1712 VRB02KT CAVOK BECMG 1622/1624 24012KT 8000 FEW030 SCT080

Aktuella väderrapporter och prognoser från 4000 flygplatser (METAR- och TAF-rapporter).

De tillgängliga stationerna syns som gula och röda prickar på kartan.

För musen över prickarna för att se namnen på stationerna.

Klicka sedan för att få väderrapporter och prognoser.

För att ändra kartan: Klicka på de gröna knapparna med ett svart kors på för att zooma in; den gröna knappen med ett streck på för att zooma ut; eller på de gröna pilarna för angränsande kartor.


METAR-TAF: